Ana Sayfa
METAR-TAF:

METAR-TAF

Havaalanları :

Morristown, New Jersey, Amerika Birleşik Devletleri

Enlem: 40-48N, Boylam: 074-25W, yükseklik: 57 m

Güncel hava durumu gözlemi

Rapor saat 20:45 UTC de 1 saat ve 4 dakika önce yapıldı.
Rüzgar kuzeydan 15 kt ve 23 kt'a kadar ani rüzgarlar
Sıcaklık 22°C
Nem 53%
Basınç 1016 hPa
Görüş mesafesi: 24.1 km
5000 ft yükseklikte parçalı bulutlu
25000 ft yükseklikte parçalı çok bulutlu

METAR: KMMU 242045Z 35015G23KT 15SM SCT050 BKN250 22/12 A3000

Saat: 17:49 (21:49 UTC)


TAF: eksik

4.000'den fazla havaalanı için hava durumu gözlemleri ve tahminleri (METAR ve TAF raporları).

Kullanılabilir istasyonlar harita üzerinde sarı ve kırmızı noktalarla gösterilir.

İstasyonun adını görmek için fareyi noktanın üzerinde gezdirin.

Sonrasında hava gözlem ve tahminlerini görmek için tıklayın.

Haritayı değiştirmek için: yaklaştırmak için siyah artı işaretli yeşil düğmeye ve uzaklaştırmak için de eksi işaretli düğmeye hızla tıklayın; bitişik haritalar için yeşil okları kullanın.


METAR-TAF: